NKS3730 KTPA-KACY
Flight info
| Callsign | NKS3730 |
|---|---|
| Flight time | 2h 4m |
| Altitude | 35000 |
| Route | BAYPO2 CAMJO Q99 PEETT BBDOL KRABY BUKYY JAYBO SIE |
| Aircraft | A320/M-SDE3FGHIRWY/LB1 |
Departure
| Time | 2026-04-23 09:11 |
|---|---|
| Airport | Tampa International Airport (KTPA) |
Arrival
| Time | 2026-04-23 11:15 |
|---|---|
| Airport | Atlantic City International Airport (KACY) |
| Time | Latitude | Longitude | Altitude | Speed | Heading |
|---|---|---|---|---|---|
| 2026-04-23 08:55 | 27.97727 | -82.53147 | 43 ft | 0 kts | 282° |
| 2026-04-23 09:02 | 27.97727 | -82.53146 | 52 ft | 0 kts | 282° |
| 2026-04-23 09:03 | 27.97725 | -82.53138 | 43 ft | 4 kts | 284° |
| 2026-04-23 09:04 | 27.97717 | -82.53109 | 43 ft | 4 kts | 294° |
| 2026-04-23 09:04 | 27.97705 | -82.53082 | 41 ft | 4 kts | 311° |
| 2026-04-23 09:04 | 27.97684 | -82.53065 | 42 ft | 3 kts | 356° |
| 2026-04-23 09:04 | 27.97680 | -82.53065 | 43 ft | 0 kts | 1° |
| 2026-04-23 09:07 | 27.97718 | -82.53062 | 41 ft | 11 kts | 3° |
| 2026-04-23 09:07 | 27.97798 | -82.53060 | 43 ft | 12 kts | 1° |
| 2026-04-23 09:07 | 27.97851 | -82.53003 | 42 ft | 13 kts | 69° |
| 2026-04-23 09:07 | 27.97939 | -82.52971 | 42 ft | 15 kts | 2° |
| 2026-04-23 09:08 | 27.98048 | -82.52967 | 42 ft | 17 kts | 0° |
| 2026-04-23 09:08 | 27.98168 | -82.52965 | 41 ft | 18 kts | 1° |
| 2026-04-23 09:08 | 27.98303 | -82.52963 | 41 ft | 20 kts | 1° |
| 2026-04-23 09:08 | 27.98450 | -82.52957 | 41 ft | 22 kts | 0° |
| 2026-04-23 09:09 | 27.98606 | -82.52948 | 41 ft | 23 kts | 2° |
| 2026-04-23 09:09 | 27.98695 | -82.52934 | 40 ft | 0 kts | 37° |
| 2026-04-23 09:09 | 27.98696 | -82.52934 | 40 ft | 1 kts | 37° |
| 2026-04-23 09:09 | 27.98711 | -82.52862 | 37 ft | 15 kts | 105° |
| 2026-04-23 09:10 | 27.98615 | -82.52827 | 37 ft | 16 kts | 186° |
| 2026-04-23 09:10 | 27.97646 | -82.52859 | 39 ft | 126 kts | 182° |
| 2026-04-23 09:10 | 27.96639 | -82.52890 | 176 ft | 153 kts | 181° |
| 2026-04-23 09:11 | 27.95595 | -82.52922 | 804 ft | 149 kts | 184° |
| 2026-04-23 09:11 | 27.94693 | -82.53509 | 1328 ft | 159 kts | 232° |
| 2026-04-23 09:11 | 27.94391 | -82.54739 | 1790 ft | 174 kts | 273° |
| 2026-04-23 09:11 | 27.94947 | -82.56020 | 2006 ft | 197 kts | 321° |
| 2026-04-23 09:12 | 27.96251 | -82.56576 | 2203 ft | 214 kts | 354° |
| 2026-04-23 09:12 | 27.97817 | -82.56716 | 2385 ft | 238 kts | 359° |
| 2026-04-23 09:12 | 27.99558 | -82.56765 | 2734 ft | 261 kts | 0° |
| 2026-04-23 09:12 | 28.01408 | -82.56797 | 3463 ft | 268 kts | 0° |
| 2026-04-23 09:13 | 28.03276 | -82.56840 | 4362 ft | 268 kts | 0° |
| 2026-04-23 09:13 | 28.05154 | -82.56898 | 5273 ft | 269 kts | 359° |
| 2026-04-23 09:13 | 28.07027 | -82.56972 | 6142 ft | 270 kts | 359° |
| 2026-04-23 09:13 | 28.08913 | -82.57057 | 6954 ft | 273 kts | 358° |
| 2026-04-23 09:14 | 28.10796 | -82.57149 | 7715 ft | 275 kts | 358° |
| 2026-04-23 09:14 | 28.12725 | -82.57246 | 8476 ft | 279 kts | 357° |
| 2026-04-23 09:14 | 28.14679 | -82.57343 | 9211 ft | 283 kts | 356° |
| 2026-04-23 09:14 | 28.16662 | -82.57440 | 9964 ft | 286 kts | 356° |
| 2026-04-23 09:15 | 28.18699 | -82.57541 | 10347 ft | 303 kts | 356° |
| 2026-04-23 09:15 | 28.20856 | -82.57645 | 10490 ft | 326 kts | 356° |
| 2026-04-23 09:15 | 28.23202 | -82.57731 | 10613 ft | 348 kts | 357° |
| 2026-04-23 09:15 | 28.25673 | -82.57802 | 10968 ft | 359 kts | 357° |
| 2026-04-23 09:16 | 28.28193 | -82.57865 | 11521 ft | 364 kts | 358° |
| 2026-04-23 09:16 | 28.30746 | -82.57926 | 12115 ft | 368 kts | 358° |
| 2026-04-23 09:16 | 28.33327 | -82.57991 | 12694 ft | 372 kts | 357° |
| 2026-04-23 09:16 | 28.35907 | -82.58064 | 13286 ft | 376 kts | 357° |
| 2026-04-23 09:17 | 28.38547 | -82.58139 | 13866 ft | 380 kts | 357° |
| 2026-04-23 09:17 | 28.41205 | -82.58208 | 14379 ft | 383 kts | 357° |
| 2026-04-23 09:17 | 28.43887 | -82.58273 | 14885 ft | 386 kts | 357° |
| 2026-04-23 09:17 | 28.46593 | -82.58339 | 15399 ft | 389 kts | 357° |
| 2026-04-23 09:18 | 28.48389 | -82.58383 | 15738 ft | 391 kts | 356° |
| 2026-04-23 09:18 | 28.51121 | -82.58450 | 16252 ft | 393 kts | 356° |
| 2026-04-23 09:18 | 28.53875 | -82.58515 | 16762 ft | 396 kts | 356° |
| 2026-04-23 09:18 | 28.56645 | -82.58582 | 17277 ft | 399 kts | 356° |
| 2026-04-23 09:19 | 28.59398 | -82.58653 | 17785 ft | 401 kts | 355° |
| 2026-04-23 09:19 | 28.62202 | -82.58727 | 18312 ft | 404 kts | 355° |
| 2026-04-23 09:19 | 28.65029 | -82.58801 | 18788 ft | 407 kts | 355° |
| 2026-04-23 09:19 | 28.67862 | -82.58963 | 19247 ft | 407 kts | 350° |
| 2026-04-23 09:20 | 28.70684 | -82.59353 | 19722 ft | 409 kts | 350° |
| 2026-04-23 09:20 | 28.73526 | -82.59750 | 20187 ft | 411 kts | 350° |
| 2026-04-23 09:20 | 28.76371 | -82.60147 | 20651 ft | 413 kts | 350° |
| 2026-04-23 09:20 | 28.79234 | -82.60546 | 21091 ft | 416 kts | 350° |
| 2026-04-23 09:21 | 28.82073 | -82.60944 | 21511 ft | 418 kts | 350° |
| 2026-04-23 09:21 | 28.84967 | -82.61349 | 21918 ft | 420 kts | 350° |
| 2026-04-23 09:21 | 28.87879 | -82.61755 | 22329 ft | 422 kts | 350° |
| 2026-04-23 09:21 | 28.90805 | -82.62163 | 22713 ft | 425 kts | 350° |
| 2026-04-23 09:22 | 28.93746 | -82.62575 | 23104 ft | 427 kts | 350° |
| 2026-04-23 09:22 | 28.96708 | -82.62991 | 23492 ft | 429 kts | 350° |
| 2026-04-23 09:22 | 28.99688 | -82.63411 | 23844 ft | 431 kts | 350° |
| 2026-04-23 09:22 | 29.02680 | -82.63832 | 24153 ft | 433 kts | 350° |
| 2026-04-23 09:23 | 29.05686 | -82.64250 | 24475 ft | 435 kts | 350° |
| 2026-04-23 09:23 | 29.08702 | -82.64667 | 24796 ft | 437 kts | 350° |
| 2026-04-23 09:23 | 29.11690 | -82.65082 | 25105 ft | 439 kts | 350° |
| 2026-04-23 09:23 | 29.14727 | -82.65507 | 25436 ft | 440 kts | 350° |
| 2026-04-23 09:24 | 29.17783 | -82.65938 | 25756 ft | 442 kts | 350° |
| 2026-04-23 09:24 | 29.20845 | -82.66373 | 26075 ft | 444 kts | 350° |
| 2026-04-23 09:24 | 29.23919 | -82.66809 | 26401 ft | 445 kts | 350° |
| 2026-04-23 09:24 | 29.26993 | -82.67242 | 26850 ft | 444 kts | 350° |
| 2026-04-23 09:25 | 29.30059 | -82.67671 | 27311 ft | 442 kts | 350° |
| 2026-04-23 09:25 | 29.33115 | -82.68099 | 27763 ft | 441 kts | 350° |
| 2026-04-23 09:25 | 29.36120 | -82.68520 | 28213 ft | 440 kts | 350° |
| 2026-04-23 09:25 | 29.39163 | -82.68950 | 28662 ft | 439 kts | 350° |
| 2026-04-23 09:26 | 29.42202 | -82.69304 | 29100 ft | 440 kts | 355° |
| 2026-04-23 09:26 | 29.45273 | -82.69309 | 29536 ft | 440 kts | 358° |
| 2026-04-23 09:26 | 29.48331 | -82.69289 | 29981 ft | 440 kts | 358° |
| 2026-04-23 09:26 | 29.51391 | -82.69270 | 30405 ft | 439 kts | 358° |
| 2026-04-23 09:27 | 29.54448 | -82.69251 | 30779 ft | 438 kts | 358° |
| 2026-04-23 09:27 | 29.57494 | -82.69232 | 31160 ft | 437 kts | 358° |
| 2026-04-23 09:27 | 29.60535 | -82.69209 | 31540 ft | 436 kts | 358° |
| 2026-04-23 09:27 | 29.63567 | -82.69186 | 31936 ft | 435 kts | 358° |
| 2026-04-23 09:28 | 29.66560 | -82.69165 | 32309 ft | 434 kts | 358° |
| 2026-04-23 09:28 | 29.69581 | -82.69143 | 32693 ft | 434 kts | 358° |
| 2026-04-23 09:28 | 29.72597 | -82.69124 | 33079 ft | 433 kts | 358° |
| 2026-04-23 09:28 | 29.75608 | -82.69105 | 33475 ft | 432 kts | 358° |
| 2026-04-23 09:29 | 29.78613 | -82.69087 | 33872 ft | 431 kts | 358° |
| 2026-04-23 09:29 | 29.81616 | -82.69070 | 34238 ft | 430 kts | 358° |
| 2026-04-23 09:29 | 29.84616 | -82.69055 | 34561 ft | 430 kts | 358° |
| 2026-04-23 09:29 | 29.87603 | -82.69040 | 34860 ft | 429 kts | 358° |
| 2026-04-23 09:30 | 29.90589 | -82.69022 | 35115 ft | 429 kts | 358° |
| 2026-04-23 09:30 | 29.96620 | -82.68980 | 35188 ft | 439 kts | 358° |
| 2026-04-23 09:31 | 30.02746 | -82.68941 | 35190 ft | 444 kts | 358° |
| 2026-04-23 09:31 | 30.08925 | -82.68901 | 35192 ft | 444 kts | 358° |
| 2026-04-23 09:32 | 30.15112 | -82.68859 | 35192 ft | 444 kts | 358° |
| 2026-04-23 09:32 | 30.21259 | -82.68824 | 35194 ft | 444 kts | 358° |
| 2026-04-23 09:33 | 30.27445 | -82.68786 | 35201 ft | 444 kts | 358° |
| 2026-04-23 09:33 | 30.33627 | -82.68747 | 35212 ft | 444 kts | 358° |
| 2026-04-23 09:34 | 30.39810 | -82.68703 | 35227 ft | 444 kts | 358° |
| 2026-04-23 09:34 | 30.45986 | -82.68666 | 35247 ft | 443 kts | 358° |
| 2026-04-23 09:35 | 30.52160 | -82.68369 | 35267 ft | 445 kts | 7° |
| 2026-04-23 09:35 | 30.58228 | -82.67079 | 35272 ft | 445 kts | 8° |
| 2026-04-23 09:36 | 30.64324 | -82.65778 | 35273 ft | 445 kts | 8° |
| 2026-04-23 09:36 | 30.70389 | -82.64489 | 35252 ft | 445 kts | 8° |
| 2026-04-23 09:37 | 30.76478 | -82.63195 | 35230 ft | 444 kts | 8° |
| 2026-04-23 09:37 | 30.82575 | -82.61891 | 35216 ft | 444 kts | 8° |
| 2026-04-23 09:38 | 30.88653 | -82.60577 | 35206 ft | 444 kts | 8° |
| 2026-04-23 09:38 | 30.94731 | -82.59272 | 35202 ft | 444 kts | 8° |
| 2026-04-23 09:39 | 31.00804 | -82.57974 | 35202 ft | 443 kts | 9° |
| 2026-04-23 09:39 | 31.06844 | -82.56648 | 35199 ft | 444 kts | 12° |
| 2026-04-23 09:40 | 31.12580 | -82.53943 | 35191 ft | 447 kts | 26° |
| 2026-04-23 09:40 | 31.18101 | -82.50572 | 35193 ft | 447 kts | 26° |
| 2026-04-23 09:41 | 31.23602 | -82.47240 | 35193 ft | 447 kts | 25° |
| 2026-04-23 09:41 | 31.29139 | -82.43878 | 35196 ft | 448 kts | 26° |
| 2026-04-23 09:42 | 31.34666 | -82.40511 | 35191 ft | 447 kts | 26° |
| 2026-04-23 09:42 | 31.40165 | -82.37164 | 35188 ft | 447 kts | 26° |
| 2026-04-23 09:43 | 31.45682 | -82.33791 | 35192 ft | 447 kts | 26° |
| 2026-04-23 09:43 | 31.51205 | -82.30409 | 35190 ft | 447 kts | 26° |
| 2026-04-23 09:44 | 31.56726 | -82.27035 | 35188 ft | 447 kts | 26° |
| 2026-04-23 09:44 | 31.62233 | -82.23665 | 35186 ft | 447 kts | 26° |
| 2026-04-23 09:45 | 31.67742 | -82.20284 | 35183 ft | 446 kts | 26° |
| 2026-04-23 09:45 | 31.73241 | -82.16897 | 35188 ft | 446 kts | 26° |
| 2026-04-23 09:46 | 31.78715 | -82.13527 | 35182 ft | 446 kts | 26° |
| 2026-04-23 09:46 | 31.84216 | -82.10145 | 35179 ft | 446 kts | 26° |
| 2026-04-23 09:47 | 31.89708 | -82.06767 | 35184 ft | 445 kts | 26° |
| 2026-04-23 09:47 | 31.95201 | -82.03368 | 35184 ft | 445 kts | 26° |
| 2026-04-23 09:48 | 32.00653 | -81.99985 | 35186 ft | 445 kts | 26° |
| 2026-04-23 09:48 | 32.06146 | -81.96584 | 35186 ft | 445 kts | 26° |
| 2026-04-23 09:49 | 32.11634 | -81.93182 | 35186 ft | 445 kts | 26° |
| 2026-04-23 09:49 | 32.17119 | -81.89800 | 35186 ft | 445 kts | 25° |
| 2026-04-23 09:50 | 32.22622 | -81.86566 | 35186 ft | 444 kts | 24° |
| 2026-04-23 09:50 | 32.28180 | -81.83362 | 35196 ft | 444 kts | 24° |
| 2026-04-23 09:51 | 32.33723 | -81.80135 | 35193 ft | 444 kts | 25° |
| 2026-04-23 09:51 | 32.39265 | -81.76867 | 35169 ft | 444 kts | 25° |
| 2026-04-23 09:52 | 32.44797 | -81.73597 | 35171 ft | 444 kts | 25° |
| 2026-04-23 09:52 | 32.50297 | -81.70346 | 35169 ft | 444 kts | 25° |
| 2026-04-23 09:53 | 32.55825 | -81.67079 | 35168 ft | 443 kts | 25° |
| 2026-04-23 09:53 | 32.61345 | -81.63808 | 35197 ft | 443 kts | 25° |
| 2026-04-23 09:54 | 32.66866 | -81.60538 | 35199 ft | 443 kts | 25° |
| 2026-04-23 09:54 | 32.72378 | -81.57270 | 35199 ft | 443 kts | 25° |
| 2026-04-23 09:55 | 32.77887 | -81.53993 | 35188 ft | 443 kts | 25° |
| 2026-04-23 09:55 | 32.83396 | -81.50711 | 35184 ft | 443 kts | 25° |
| 2026-04-23 09:56 | 32.88904 | -81.47428 | 35170 ft | 443 kts | 25° |
| 2026-04-23 09:56 | 32.94419 | -81.44139 | 35172 ft | 443 kts | 25° |
| 2026-04-23 09:57 | 32.99928 | -81.40849 | 35167 ft | 443 kts | 25° |
| 2026-04-23 09:57 | 33.05412 | -81.37576 | 35173 ft | 443 kts | 25° |
| 2026-04-23 09:58 | 33.10936 | -81.34264 | 35176 ft | 443 kts | 25° |
| 2026-04-23 09:58 | 33.16443 | -81.30955 | 35190 ft | 443 kts | 25° |
| 2026-04-23 09:59 | 33.21951 | -81.27649 | 35183 ft | 443 kts | 25° |
| 2026-04-23 09:59 | 33.27456 | -81.24335 | 35184 ft | 443 kts | 25° |
| 2026-04-23 10:00 | 33.32920 | -81.21039 | 35183 ft | 442 kts | 25° |
| 2026-04-23 10:00 | 33.38417 | -81.17722 | 35180 ft | 442 kts | 25° |
| 2026-04-23 10:01 | 33.43905 | -81.14405 | 35165 ft | 441 kts | 25° |
| 2026-04-23 10:01 | 33.49390 | -81.11080 | 35162 ft | 441 kts | 25° |
| 2026-04-23 10:02 | 33.54875 | -81.07763 | 35155 ft | 441 kts | 24° |
| 2026-04-23 10:02 | 33.59425 | -81.05002 | 35161 ft | 441 kts | 25° |
| 2026-04-23 10:03 | 33.64478 | -81.01927 | 35165 ft | 440 kts | 24° |
| 2026-04-23 10:03 | 33.69946 | -80.98597 | 35167 ft | 440 kts | 24° |
| 2026-04-23 10:04 | 33.75409 | -80.95267 | 35170 ft | 440 kts | 24° |
| 2026-04-23 10:04 | 33.80870 | -80.91932 | 35152 ft | 440 kts | 24° |
| 2026-04-23 10:05 | 33.86194 | -80.88369 | 35149 ft | 443 kts | 33° |
| 2026-04-23 10:05 | 33.91072 | -80.83811 | 35147 ft | 443 kts | 35° |
| 2026-04-23 10:06 | 33.95952 | -80.79244 | 35145 ft | 443 kts | 34° |
| 2026-04-23 10:06 | 34.00822 | -80.74682 | 35145 ft | 443 kts | 35° |
| 2026-04-23 10:07 | 34.05663 | -80.70131 | 35144 ft | 443 kts | 34° |
| 2026-04-23 10:07 | 34.10528 | -80.65550 | 35157 ft | 444 kts | 34° |
| 2026-04-23 10:08 | 34.15402 | -80.60952 | 35158 ft | 444 kts | 34° |
| 2026-04-23 10:08 | 34.20264 | -80.56356 | 35164 ft | 444 kts | 34° |
| 2026-04-23 10:09 | 34.27551 | -80.49466 | 35158 ft | 445 kts | 34° |
| 2026-04-23 10:09 | 34.32479 | -80.44918 | 35161 ft | 445 kts | 33° |
| 2026-04-23 10:10 | 34.37415 | -80.40401 | 35156 ft | 445 kts | 33° |
| 2026-04-23 10:10 | 34.42329 | -80.35873 | 35153 ft | 446 kts | 33° |
| 2026-04-23 10:11 | 34.47272 | -80.31297 | 35152 ft | 446 kts | 33° |
| 2026-04-23 10:11 | 34.52211 | -80.26714 | 35158 ft | 447 kts | 33° |
| 2026-04-23 10:12 | 34.57128 | -80.22153 | 35151 ft | 447 kts | 33° |
| 2026-04-23 10:12 | 34.62070 | -80.17556 | 35151 ft | 447 kts | 33° |
| 2026-04-23 10:13 | 34.67016 | -80.12951 | 35145 ft | 447 kts | 33° |
| 2026-04-23 10:13 | 34.71961 | -80.08343 | 35146 ft | 448 kts | 33° |
| 2026-04-23 10:14 | 34.76913 | -80.03732 | 35143 ft | 448 kts | 33° |
| 2026-04-23 10:14 | 34.81838 | -79.99152 | 35146 ft | 448 kts | 33° |
| 2026-04-23 10:15 | 34.86860 | -79.94671 | 35142 ft | 447 kts | 32° |
| 2026-04-23 10:15 | 34.91928 | -79.90269 | 35145 ft | 447 kts | 31° |
| 2026-04-23 10:16 | 34.96982 | -79.85838 | 35144 ft | 448 kts | 32° |
| 2026-04-23 10:16 | 35.02033 | -79.81356 | 35143 ft | 448 kts | 32° |
| 2026-04-23 10:17 | 35.07067 | -79.76879 | 35130 ft | 448 kts | 32° |
| 2026-04-23 10:17 | 35.12083 | -79.72421 | 35112 ft | 448 kts | 32° |
| 2026-04-23 10:18 | 35.17130 | -79.67943 | 35116 ft | 448 kts | 31° |
| 2026-04-23 10:18 | 35.22235 | -79.63558 | 35134 ft | 447 kts | 31° |
| 2026-04-23 10:19 | 35.27328 | -79.59258 | 35141 ft | 447 kts | 30° |
| 2026-04-23 10:19 | 35.32445 | -79.54906 | 35151 ft | 447 kts | 31° |
| 2026-04-23 10:20 | 35.37549 | -79.50528 | 35151 ft | 447 kts | 31° |
| 2026-04-23 10:20 | 35.42649 | -79.46146 | 35153 ft | 446 kts | 31° |
| 2026-04-23 10:21 | 35.47708 | -79.41785 | 35149 ft | 446 kts | 31° |
| 2026-04-23 10:21 | 35.52797 | -79.37400 | 35150 ft | 446 kts | 31° |
| 2026-04-23 10:22 | 35.57887 | -79.33010 | 35143 ft | 446 kts | 31° |
| 2026-04-23 10:22 | 35.62963 | -79.28620 | 35136 ft | 446 kts | 31° |
| 2026-04-23 10:23 | 35.68009 | -79.24244 | 35147 ft | 446 kts | 31° |
| 2026-04-23 10:23 | 35.73086 | -79.19841 | 35140 ft | 446 kts | 31° |
| 2026-04-23 10:24 | 35.78156 | -79.15440 | 35139 ft | 446 kts | 31° |
| 2026-04-23 10:24 | 35.83237 | -79.11024 | 35136 ft | 446 kts | 30° |
| 2026-04-23 10:25 | 35.88281 | -79.06640 | 35135 ft | 445 kts | 30° |
| 2026-04-23 10:25 | 35.93343 | -79.02228 | 35136 ft | 445 kts | 30° |
| 2026-04-23 10:26 | 35.98392 | -78.97813 | 35131 ft | 444 kts | 30° |
| 2026-04-23 10:26 | 36.03437 | -78.93396 | 35132 ft | 444 kts | 30° |
| 2026-04-23 10:27 | 36.08476 | -78.88979 | 35142 ft | 444 kts | 30° |
| 2026-04-23 10:27 | 36.13494 | -78.84577 | 35147 ft | 444 kts | 30° |
| 2026-04-23 10:28 | 36.18537 | -78.80144 | 35149 ft | 444 kts | 30° |
| 2026-04-23 10:28 | 36.23574 | -78.75701 | 35152 ft | 444 kts | 30° |
| 2026-04-23 10:29 | 36.28590 | -78.71271 | 35127 ft | 444 kts | 30° |
| 2026-04-23 10:29 | 36.33251 | -78.67154 | 35129 ft | 444 kts | 30° |
| 2026-04-23 10:30 | 36.38291 | -78.62705 | 35127 ft | 445 kts | 30° |
| 2026-04-23 10:30 | 36.43329 | -78.58235 | 35121 ft | 444 kts | 29° |
| 2026-04-23 10:31 | 36.48672 | -78.54660 | 35115 ft | 438 kts | 20° |
| 2026-04-23 10:31 | 36.54187 | -78.51364 | 35108 ft | 438 kts | 20° |
| 2026-04-23 10:32 | 36.59667 | -78.48080 | 35105 ft | 439 kts | 20° |
| 2026-04-23 10:32 | 36.65167 | -78.44776 | 35114 ft | 439 kts | 20° |
| 2026-04-23 10:33 | 36.70679 | -78.41453 | 35121 ft | 440 kts | 21° |
| 2026-04-23 10:33 | 36.76198 | -78.38115 | 35123 ft | 440 kts | 21° |
| 2026-04-23 10:34 | 36.81714 | -78.34783 | 35120 ft | 440 kts | 20° |
| 2026-04-23 10:34 | 36.87206 | -78.31470 | 35116 ft | 440 kts | 21° |
| 2026-04-23 10:35 | 36.92734 | -78.28125 | 35106 ft | 441 kts | 21° |
| 2026-04-23 10:35 | 36.98254 | -78.24773 | 35091 ft | 441 kts | 21° |
| 2026-04-23 10:36 | 37.03775 | -78.21417 | 35091 ft | 441 kts | 21° |
| 2026-04-23 10:36 | 37.09258 | -78.18078 | 35095 ft | 441 kts | 21° |
| 2026-04-23 10:37 | 37.14789 | -78.14696 | 35092 ft | 441 kts | 21° |
| 2026-04-23 10:37 | 37.20315 | -78.11316 | 35098 ft | 441 kts | 21° |
| 2026-04-23 10:38 | 37.25838 | -78.07938 | 35091 ft | 441 kts | 21° |
| 2026-04-23 10:38 | 37.31361 | -78.04559 | 35094 ft | 441 kts | 21° |
| 2026-04-23 10:39 | 37.36842 | -78.01188 | 35091 ft | 441 kts | 21° |
| 2026-04-23 10:39 | 37.42362 | -77.97785 | 35093 ft | 441 kts | 21° |
| 2026-04-23 10:40 | 37.47900 | -77.94365 | 35091 ft | 441 kts | 21° |
| 2026-04-23 10:40 | 37.53388 | -77.90980 | 35099 ft | 441 kts | 21° |
| 2026-04-23 10:41 | 37.58913 | -77.87560 | 35097 ft | 442 kts | 21° |
| 2026-04-23 10:41 | 37.64368 | -77.83956 | 35102 ft | 446 kts | 29° |
| 2026-04-23 10:42 | 37.69413 | -77.79438 | 35099 ft | 447 kts | 30° |
| 2026-04-23 10:42 | 37.74481 | -77.74864 | 35097 ft | 447 kts | 30° |
| 2026-04-23 10:43 | 37.79553 | -77.70273 | 35089 ft | 447 kts | 30° |
| 2026-04-23 10:43 | 37.84616 | -77.65682 | 35089 ft | 447 kts | 30° |
| 2026-04-23 10:44 | 37.89675 | -77.61101 | 35087 ft | 447 kts | 30° |
| 2026-04-23 10:44 | 37.94737 | -77.56510 | 35088 ft | 447 kts | 30° |
| 2026-04-23 10:45 | 37.99796 | -77.51904 | 35068 ft | 447 kts | 30° |
| 2026-04-23 10:45 | 38.04811 | -77.47329 | 35079 ft | 447 kts | 30° |
| 2026-04-23 10:46 | 38.09868 | -77.42715 | 35073 ft | 447 kts | 30° |
| 2026-04-23 10:46 | 38.14912 | -77.38106 | 35084 ft | 447 kts | 30° |
| 2026-04-23 10:47 | 38.19962 | -77.33469 | 35082 ft | 447 kts | 30° |
| 2026-04-23 10:47 | 38.24152 | -77.29626 | 35081 ft | 447 kts | 30° |
| 2026-04-23 10:48 | 38.30023 | -77.24233 | 35080 ft | 447 kts | 30° |
| 2026-04-23 10:48 | 38.34251 | -77.20344 | 35082 ft | 447 kts | 30° |
| 2026-04-23 10:49 | 38.39179 | -77.15567 | 35076 ft | 452 kts | 38° |
| 2026-04-23 10:49 | 38.43606 | -77.09803 | 35076 ft | 454 kts | 40° |
| 2026-04-23 10:50 | 38.48031 | -77.04032 | 35073 ft | 455 kts | 40° |
| 2026-04-23 10:50 | 38.52468 | -76.98259 | 35066 ft | 455 kts | 40° |
| 2026-04-23 10:51 | 38.56896 | -76.92470 | 35062 ft | 455 kts | 40° |
| 2026-04-23 10:51 | 38.61295 | -76.86700 | 35059 ft | 455 kts | 40° |
| 2026-04-23 10:52 | 38.65726 | -76.80888 | 35053 ft | 456 kts | 40° |
| 2026-04-23 10:52 | 38.69776 | -76.74583 | 35056 ft | 466 kts | 54° |
| 2026-04-23 10:53 | 38.71212 | -76.70823 | 35053 ft | 473 kts | 65° |
| 2026-04-23 10:53 | 38.72179 | -76.66779 | 35050 ft | 477 kts | 71° |
| 2026-04-23 10:53 | 38.73893 | -76.58543 | 34932 ft | 479 kts | 70° |
| 2026-04-23 10:54 | 38.74755 | -76.54420 | 34688 ft | 479 kts | 71° |
| 2026-04-23 10:54 | 38.75616 | -76.50299 | 34452 ft | 479 kts | 71° |
| 2026-04-23 10:54 | 38.76479 | -76.46170 | 34218 ft | 480 kts | 71° |
| 2026-04-23 10:54 | 38.77337 | -76.42033 | 33976 ft | 480 kts | 71° |
| 2026-04-23 10:55 | 38.78180 | -76.37944 | 33701 ft | 481 kts | 71° |
| 2026-04-23 10:55 | 38.79034 | -76.33791 | 33077 ft | 483 kts | 71° |
| 2026-04-23 10:55 | 38.79900 | -76.29594 | 32091 ft | 489 kts | 71° |
| 2026-04-23 10:55 | 38.80778 | -76.25357 | 31130 ft | 494 kts | 71° |
| 2026-04-23 10:56 | 38.81662 | -76.21079 | 30104 ft | 499 kts | 71° |
| 2026-04-23 10:56 | 38.82549 | -76.16765 | 29110 ft | 500 kts | 71° |
| 2026-04-23 10:56 | 38.83427 | -76.12463 | 27779 ft | 495 kts | 71° |
| 2026-04-23 10:56 | 38.84284 | -76.08219 | 26627 ft | 486 kts | 71° |
| 2026-04-23 10:57 | 38.85114 | -76.04097 | 25583 ft | 477 kts | 71° |
| 2026-04-23 10:57 | 38.85968 | -76.00030 | 25022 ft | 454 kts | 66° |
| 2026-04-23 10:57 | 38.87296 | -75.96538 | 24387 ft | 435 kts | 50° |
| 2026-04-23 10:57 | 38.89171 | -75.93540 | 23742 ft | 428 kts | 40° |
| 2026-04-23 10:58 | 38.91302 | -75.90874 | 23036 ft | 425 kts | 36° |
| 2026-04-23 10:58 | 38.93474 | -75.88328 | 22422 ft | 422 kts | 37° |
| 2026-04-23 10:58 | 38.95595 | -75.85724 | 21793 ft | 421 kts | 39° |
| 2026-04-23 10:58 | 38.97622 | -75.83009 | 21157 ft | 421 kts | 41° |
| 2026-04-23 10:59 | 38.99571 | -75.80170 | 20525 ft | 422 kts | 44° |
| 2026-04-23 10:59 | 39.01425 | -75.77308 | 19883 ft | 416 kts | 45° |
| 2026-04-23 10:59 | 39.03247 | -75.74425 | 19282 ft | 415 kts | 45° |
| 2026-04-23 10:59 | 39.05070 | -75.71546 | 18693 ft | 413 kts | 44° |
| 2026-04-23 11:00 | 39.06895 | -75.68700 | 18073 ft | 411 kts | 44° |
| 2026-04-23 11:00 | 39.08724 | -75.65885 | 17513 ft | 408 kts | 44° |
| 2026-04-23 11:00 | 39.10551 | -75.63099 | 16961 ft | 406 kts | 44° |
| 2026-04-23 11:00 | 39.12350 | -75.60362 | 16446 ft | 404 kts | 44° |
| 2026-04-23 11:01 | 39.14161 | -75.57606 | 15911 ft | 402 kts | 44° |
| 2026-04-23 11:01 | 39.15969 | -75.54859 | 15373 ft | 402 kts | 44° |
| 2026-04-23 11:01 | 39.17770 | -75.52109 | 14789 ft | 401 kts | 45° |
| 2026-04-23 11:01 | 39.19560 | -75.49363 | 14231 ft | 399 kts | 45° |
| 2026-04-23 11:02 | 39.21345 | -75.46622 | 13635 ft | 398 kts | 45° |
| 2026-04-23 11:02 | 39.23123 | -75.43890 | 13026 ft | 396 kts | 45° |
| 2026-04-23 11:02 | 39.24895 | -75.41168 | 12418 ft | 394 kts | 45° |
| 2026-04-23 11:02 | 39.26661 | -75.38455 | 11811 ft | 393 kts | 46° |
| 2026-04-23 11:03 | 39.28416 | -75.35763 | 11187 ft | 391 kts | 46° |
| 2026-04-23 11:03 | 39.30147 | -75.33102 | 10916 ft | 379 kts | 46° |
| 2026-04-23 11:03 | 39.31784 | -75.30574 | 10810 ft | 364 kts | 46° |
| 2026-04-23 11:03 | 39.33379 | -75.28105 | 10684 ft | 351 kts | 46° |
| 2026-04-23 11:04 | 39.34920 | -75.25723 | 10566 ft | 339 kts | 46° |
| 2026-04-23 11:04 | 39.36415 | -75.23416 | 10441 ft | 328 kts | 46° |
| 2026-04-23 11:04 | 39.37847 | -75.21206 | 10320 ft | 319 kts | 46° |
| 2026-04-23 11:04 | 39.39258 | -75.19026 | 10116 ft | 314 kts | 46° |
| 2026-04-23 11:05 | 39.40647 | -75.16879 | 10039 ft | 310 kts | 46° |
| 2026-04-23 11:05 | 39.42045 | -75.14722 | 9610 ft | 316 kts | 46° |
| 2026-04-23 11:05 | 39.43443 | -75.12562 | 9209 ft | 309 kts | 46° |
| 2026-04-23 11:05 | 39.44815 | -75.10432 | 8623 ft | 306 kts | 46° |
| 2026-04-23 11:06 | 39.46425 | -75.07937 | 7940 ft | 302 kts | 46° |
| 2026-04-23 11:06 | 39.47750 | -75.05880 | 7377 ft | 300 kts | 46° |
| 2026-04-23 11:06 | 39.49077 | -75.03817 | 6874 ft | 295 kts | 46° |
| 2026-04-23 11:07 | 39.50386 | -75.01779 | 6314 ft | 293 kts | 46° |
| 2026-04-23 11:07 | 39.51680 | -74.99762 | 5790 ft | 289 kts | 46° |
| 2026-04-23 11:07 | 39.52958 | -74.97769 | 5291 ft | 286 kts | 46° |
| 2026-04-23 11:07 | 39.54223 | -74.95791 | 4800 ft | 284 kts | 46° |
| 2026-04-23 11:08 | 39.55470 | -74.93840 | 4529 ft | 272 kts | 46° |
| 2026-04-23 11:08 | 39.56632 | -74.92015 | 4465 ft | 252 kts | 46° |
| 2026-04-23 11:08 | 39.57639 | -74.90223 | 4388 ft | 251 kts | 64° |
| 2026-04-23 11:08 | 39.57942 | -74.88016 | 4299 ft | 251 kts | 99° |
| 2026-04-23 11:09 | 39.57365 | -74.85925 | 4203 ft | 244 kts | 121° |
| 2026-04-23 11:09 | 39.56622 | -74.84019 | 4097 ft | 228 kts | 121° |
| 2026-04-23 11:09 | 39.55930 | -74.82275 | 3979 ft | 208 kts | 123° |
| 2026-04-23 11:09 | 39.55272 | -74.80661 | 3733 ft | 197 kts | 124° |
| 2026-04-23 11:10 | 39.54651 | -74.79143 | 3484 ft | 189 kts | 124° |
| 2026-04-23 11:10 | 39.54046 | -74.77665 | 3246 ft | 183 kts | 126° |
| 2026-04-23 11:10 | 39.53460 | -74.76232 | 3022 ft | 176 kts | 126° |
| 2026-04-23 11:10 | 39.52899 | -74.74860 | 2788 ft | 166 kts | 127° |
| 2026-04-23 11:11 | 39.52368 | -74.73565 | 2558 ft | 160 kts | 128° |
| 2026-04-23 11:11 | 39.51855 | -74.72314 | 2339 ft | 155 kts | 129° |
| 2026-04-23 11:11 | 39.51357 | -74.71099 | 2130 ft | 151 kts | 129° |
| 2026-04-23 11:11 | 39.50871 | -74.69916 | 1934 ft | 147 kts | 129° |
| 2026-04-23 11:12 | 39.50398 | -74.68764 | 1737 ft | 143 kts | 129° |
| 2026-04-23 11:12 | 39.49935 | -74.67637 | 1533 ft | 141 kts | 128° |
| 2026-04-23 11:12 | 39.49480 | -74.66530 | 1338 ft | 141 kts | 127° |
| 2026-04-23 11:12 | 39.49111 | -74.65631 | 1187 ft | 138 kts | 127° |
| 2026-04-23 11:13 | 39.48845 | -74.64983 | 1064 ft | 137 kts | 126° |
| 2026-04-23 11:13 | 39.48400 | -74.63902 | 897 ft | 135 kts | 125° |
| 2026-04-23 11:13 | 39.47956 | -74.62822 | 727 ft | 136 kts | 124° |
| 2026-04-23 11:13 | 39.47507 | -74.61733 | 568 ft | 137 kts | 121° |
| 2026-04-23 11:14 | 39.47062 | -74.60637 | 388 ft | 138 kts | 118° |
| 2026-04-23 11:14 | 39.46615 | -74.59550 | 169 ft | 138 kts | 118° |
| 2026-04-23 11:14 | 39.46167 | -74.58464 | 85 ft | 130 kts | 117° |
| 2026-04-23 11:14 | 39.45805 | -74.57603 | 66 ft | 73 kts | 118° |
| 2026-04-23 11:15 | 39.45675 | -74.57281 | 67 ft | 30 kts | 118° |
| 2026-04-23 11:15 | 39.45578 | -74.57048 | 70 ft | 30 kts | 117° |
| 2026-04-23 11:15 | 39.45509 | -74.56934 | 70 ft | 10 kts | 196° |
| 2026-04-23 11:15 | 39.45461 | -74.57020 | 71 ft | 14 kts | 237° |
| 2026-04-23 11:16 | 39.45408 | -74.57081 | 74 ft | 0 kts | 210° |
| 2026-04-23 11:16 | 39.45408 | -74.57082 | 74 ft | 1 kts | 210° |
| 2026-04-23 11:16 | 39.45369 | -74.57156 | 71 ft | 16 kts | 244° |
| 2026-04-23 11:16 | 39.45297 | -74.57277 | 70 ft | 20 kts | 227° |
| 2026-04-23 11:17 | 39.45246 | -74.57311 | 68 ft | 8 kts | 173° |
| 2026-04-23 11:17 | 39.45210 | -74.57285 | 71 ft | 3 kts | 145° |
| 2026-04-23 11:17 | 39.45198 | -74.57275 | 73 ft | 2 kts | 147° |
| 2026-04-23 11:17 | 39.45197 | -74.57274 | 73 ft | 0 kts | 147° |